Time;durP1;ratioP1;P1;durP2;ratioP2;P2;SDS_P1;SDS_P2;PMS_P1;PMS_P2;Temp;Humidity;BMP_temperature;BMP_pressure;BME280_temperature;BME280_humidity;BME280_pressure;Samples;Min_cycle;Max_cycle;Signal;HPM_P1;HPM_P2
2022/09/30 00:01:48;;;;;;;20.63;19.30;;;12.30;85.40;;;;;;4938131;28;20495;-81
2022/09/30 00:04:20;;;;;;;19.77;18.48;;;12.30;85.30;;;;;;4950852;28;20035;-81
2022/09/30 00:06:46;;;;;;;19.70;18.38;;;12.30;85.30;;;;;;4955036;28;20031;-81
2022/09/30 00:09:13;;;;;;;19.42;18.17;;;12.30;85.10;;;;;;4949258;29;20031;-81
2022/09/30 00:11:39;;;;;;;18.63;17.30;;;12.20;85.10;;;;;;4951225;29;20043;-82
2022/09/30 00:14:07;;;;;;;18.95;17.65;;;12.20;85.00;;;;;;4936066;29;20480;-81
2022/09/30 00:16:34;;;;;;;19.33;17.95;;;12.20;85.00;;;;;;4953378;28;20042;-81
2022/09/30 00:19:02;;;;;;;19.33;18.00;;;12.20;85.00;;;;;;4951626;28;20031;-81
2022/09/30 00:21:28;;;;;;;18.02;16.70;;;12.10;85.10;;;;;;4945130;28;20039;-81
2022/09/30 00:23:54;;;;;;;19.15;17.90;;;12.10;85.10;;;;;;4936714;29;20043;-81
2022/09/30 00:26:21;;;;;;;19.83;18.23;;;12.10;85.20;;;;;;4953548;29;20039;-81
2022/09/30 00:28:57;;;;;;;20.30;18.90;;;12.00;85.30;;;;;;4955762;29;20027;-81
2022/09/30 00:31:29;;;;;;;21.63;19.95;;;12.00;85.30;;;;;;4950101;28;20055;-81
2022/09/30 00:34:07;;;;;;;21.67;19.98;;;12.00;85.40;;;;;;4934470;29;20051;-82
2022/09/30 00:36:36;;;;;;;21.13;19.35;;;11.90;85.60;;;;;;4949929;29;20035;-81
2022/09/30 00:39:03;;;;;;;19.92;18.63;;;11.90;85.70;;;;;;4973484;28;20623;-81
2022/09/30 00:41:29;;;;;;;19.30;17.98;;;11.80;85.50;;;;;;4953354;28;20039;-81
2022/09/30 00:43:55;;;;;;;19.90;18.60;;;11.80;85.40;;;;;;4936296;29;20043;-82
2022/09/30 00:46:35;;;;;;;21.08;19.50;;;11.80;85.40;;;;;;4942615;28;20035;-82
2022/09/30 00:49:06;;;;;;;20.77;19.38;;;11.80;85.60;;;;;;4967029;28;20068;-81
2022/09/30 00:51:35;;;;;;;20.08;18.70;;;11.80;85.50;;;;;;4955760;28;20031;-82
2022/09/30 00:54:04;;;;;;;20.27;18.95;;;11.80;85.50;;;;;;4962669;28;20397;-82
2022/09/30 00:56:32;;;;;;;19.80;18.50;;;11.70;85.40;;;;;;4937312;29;20054;-81
2022/09/30 00:59:07;;;;;;;19.85;18.55;;;11.70;85.60;;;;;;4952700;29;20061;-82
2022/09/30 01:01:35;;;;;;;18.98;17.67;;;11.70;85.40;;;;;;4950436;28;20400;-81
2022/09/30 01:04:05;;;;;;;19.63;18.15;;;11.60;85.40;;;;;;4952660;28;20043;-81
2022/09/30 01:06:31;;;;;;;20.73;19.17;;;11.60;85.50;;;;;;4953818;28;20035;-81
2022/09/30 01:08:57;;;;;;;20.70;19.17;;;11.50;85.50;;;;;;4951536;29;20388;-81
2022/09/30 01:11:24;;;;;;;19.65;18.27;;;11.50;85.50;;;;;;4954232;28;20031;-81
2022/09/30 01:13:52;;;;;;;21.15;19.75;;;11.50;85.40;;;;;;4936461;29;20032;-82
2022/09/30 01:16:36;;;;;;;20.52;19.02;;;11.60;85.60;;;;;;4951515;28;20427;-81
2022/09/30 01:19:31;;;;;;;20.70;19.20;;;11.50;85.40;;;;;;4952668;28;20051;-81
2022/09/30 01:22:23;;;;;;;19.67;18.38;;;11.50;85.30;;;;;;4951647;29;20038;-81
2022/09/30 01:25:04;;;;;;;20.20;18.80;;;11.50;85.40;;;;;;4938579;29;20043;-81
2022/09/30 01:27:57;;;;;;;19.50;18.23;;;11.50;85.20;;;;;;4952645;29;20044;-80
2022/09/30 01:30:56;;;;;;;19.88;18.30;;;11.50;85.20;;;;;;4944529;28;20040;-81
2022/09/30 01:33:50;;;;;;;19.88;18.48;;;11.40;85.30;;;;;;4932288;29;20047;-81
2022/09/30 01:36:19;;;;;;;20.40;19.05;;;11.40;85.20;;;;;;4932314;29;20043;-81
2022/09/30 01:38:56;;;;;;;19.17;17.98;;;11.30;85.30;;;;;;4943312;28;20399;-81
2022/09/30 01:41:31;;;;;;;18.92;17.42;;;11.40;85.10;;;;;;4953337;28;20031;-82
2022/09/30 01:44:17;;;;;;;19.48;18.17;;;11.30;85.20;;;;;;4934756;29;20042;-81
2022/09/30 01:46:54;;;;;;;19.60;18.00;;;11.30;85.30;;;;;;4936176;28;20031;-81
2022/09/30 01:49:35;;;;;;;19.15;17.92;;;11.30;85.00;;;;;;4920342;29;20531;-81
2022/09/30 01:52:06;;;;;;;19.83;18.50;;;11.20;85.10;;;;;;4944934;28;20043;-81
2022/09/30 01:54:38;;;;;;;21.02;19.52;;;11.20;85.30;;;;;;4943675;28;20042;-81
2022/09/30 01:57:09;;;;;;;20.95;19.45;;;11.20;85.20;;;;;;4940980;28;20043;-81
2022/09/30 01:59:57;;;;;;;20.90;19.40;;;11.20;85.30;;;;;;4923797;29;20043;-81
2022/09/30 02:02:27;;;;;;;20.75;19.23;;;11.10;85.20;;;;;;4937618;28;20035;-81
2022/09/30 02:05:32;;;;;;;20.73;19.10;;;11.20;85.20;;;;;;4962407;28;20035;-80
2022/09/30 02:08:15;;;;;;;19.77;18.48;;;11.10;85.30;;;;;;4943838;29;20062;-82
2022/09/30 02:10:44;;;;;;;19.10;17.73;;;11.10;85.40;;;;;;4946814;28;20035;-81
2022/09/30 02:13:21;;;;;;;20.30;19.00;;;11.00;85.40;;;;;;4947831;28;20036;-81
2022/09/30 02:15:53;;;;;;;20.15;18.88;;;11.00;85.60;;;;;;4938173;28;20045;-82
2022/09/30 02:18:33;;;;;;;20.42;19.00;;;10.90;85.70;;;;;;4932280;29;20126;-82
2022/09/30 02:21:00;;;;;;;21.77;20.05;;;10.90;86.00;;;;;;4961051;28;20050;-81
2022/09/30 02:23:39;;;;;;;20.65;19.27;;;10.90;85.80;;;;;;4963704;28;20485;-81
2022/09/30 02:26:33;;;;;;;20.88;19.58;;;10.90;85.70;;;;;;4962193;28;20035;-82
2022/09/30 02:29:09;;;;;;;21.17;19.83;;;10.90;86.00;;;;;;4952484;28;20042;-81
2022/09/30 02:31:37;;;;;;;21.50;19.50;;;11.00;85.70;;;;;;4965789;28;20416;-81
2022/09/30 02:34:04;;;;;;;20.90;19.50;;;10.90;85.50;;;;;;4933438;29;20043;-81
2022/09/30 02:36:32;;;;;;;21.83;20.33;;;10.90;85.70;;;;;;4957577;28;20051;-80
2022/09/30 02:39:06;;;;;;;20.95;19.65;;;10.80;85.90;;;;;;4967150;28;20042;-81
2022/09/30 02:41:37;;;;;;;21.23;19.63;;;10.80;86.00;;;;;;4956945;28;20050;-81
2022/09/30 02:44:03;;;;;;;21.92;20.30;;;10.80;85.80;;;;;;4936496;29;20487;-81
2022/09/30 02:46:32;;;;;;;21.33;19.75;;;10.80;85.70;;;;;;4949904;28;20035;-81
2022/09/30 02:49:10;;;;;;;20.83;19.38;;;10.90;85.70;;;;;;4952197;29;20027;-81
2022/09/30 02:51:48;;;;;;;22.10;20.50;;;10.80;85.70;;;;;;4959387;28;20047;-81
2022/09/30 02:54:21;;;;;;;21.65;20.02;;;10.80;85.80;;;;;;4950591;28;20054;-81
2022/09/30 02:56:58;;;;;;;21.83;20.42;;;10.70;86.10;;;;;;4945336;28;20023;-81
2022/09/30 02:59:24;;;;;;;21.98;20.13;;;10.70;86.10;;;;;;4951944;28;20122;-81
2022/09/30 03:01:50;;;;;;;21.00;19.50;;;10.70;85.90;;;;;;4935570;28;20046;-81
2022/09/30 03:04:22;;;;;;;22.15;20.60;;;10.70;85.90;;;;;;4962323;28;20043;-81
2022/09/30 03:06:48;;;;;;;21.00;19.58;;;10.80;86.00;;;;;;4947600;29;20048;-81
2022/09/30 03:09:14;;;;;;;19.05;17.85;;;10.80;85.60;;;;;;4932376;29;20032;-81
2022/09/30 03:11:41;;;;;;;21.23;19.73;;;10.70;85.60;;;;;;4935036;29;20055;-80
2022/09/30 03:14:18;;;;;;;21.05;19.58;;;10.70;85.90;;;;;;4941959;28;20400;-81
2022/09/30 03:17:16;;;;;;;21.27;19.90;;;10.60;86.10;;;;;;4948729;28;20035;-81
2022/09/30 03:20:07;;;;;;;22.45;20.65;;;10.50;86.10;;;;;;4947910;29;20472;-81
2022/09/30 03:22:39;;;;;;;21.00;19.63;;;10.50;86.20;;;;;;4935494;29;20027;-81
2022/09/30 03:25:30;;;;;;;21.83;20.42;;;10.50;86.20;;;;;;4950034;29;20382;-81
2022/09/30 03:28:15;;;;;;;22.42;20.83;;;10.50;86.70;;;;;;4942512;28;20028;-81
2022/09/30 03:30:59;;;;;;;21.92;20.33;;;10.50;86.00;;;;;;4950963;28;20054;-80
2022/09/30 03:33:34;;;;;;;21.60;20.13;;;10.50;86.00;;;;;;4938036;28;20508;-79
2022/09/30 03:36:12;;;;;;;21.20;19.67;;;10.50;85.90;;;;;;4939033;29;20043;-80
2022/09/30 03:38:57;;;;;;;22.02;20.45;;;10.50;85.90;;;;;;4944619;28;20066;-78
2022/09/30 03:42:03;;;;;;;21.52;20.02;;;10.50;86.00;;;;;;4954220;28;20066;-77
2022/09/30 03:44:46;;;;;;;21.33;19.92;;;10.40;85.90;;;;;;4952928;28;20035;-78
2022/09/30 03:47:13;;;;;;;21.65;20.05;;;10.40;85.70;;;;;;4948370;28;20054;-78
2022/09/30 03:49:48;;;;;;;20.48;18.85;;;10.40;86.10;;;;;;4958239;28;20038;-79
2022/09/30 03:52:14;;;;;;;21.17;19.77;;;10.30;86.10;;;;;;4955009;28;20062;-78
2022/09/30 03:54:49;;;;;;;21.63;19.98;;;10.20;86.20;;;;;;4951725;28;20034;-78
2022/09/30 03:57:15;;;;;;;22.70;20.85;;;10.20;86.40;;;;;;4967038;28;20051;-79
2022/09/30 03:59:42;;;;;;;20.85;19.38;;;10.20;86.40;;;;;;4936971;29;20032;-78
2022/09/30 04:02:09;;;;;;;22.13;20.63;;;10.20;86.10;;;;;;4952497;28;20039;-77
2022/09/30 04:04:35;;;;;;;21.60;20.00;;;10.10;86.20;;;;;;4956049;29;20054;-79
2022/09/30 04:07:01;;;;;;;22.08;20.52;;;10.20;86.10;;;;;;4965922;28;20035;-78
2022/09/30 04:09:27;;;;;;;21.08;19.58;;;10.20;86.00;;;;;;4938040;29;20464;-78
2022/09/30 04:11:54;;;;;;;22.73;21.02;;;10.10;86.10;;;;;;4956407;29;20043;-77
2022/09/30 04:14:20;;;;;;;21.50;19.77;;;10.10;86.10;;;;;;4951059;29;20062;-77
2022/09/30 04:16:46;;;;;;;20.95;19.27;;;10.20;86.00;;;;;;4954231;28;20053;-78
2022/09/30 04:19:12;;;;;;;21.17;19.58;;;10.10;85.80;;;;;;4950504;28;20035;-78
2022/09/30 04:21:38;;;;;;;21.45;19.85;;;10.20;85.70;;;;;;4946898;29;20035;-78
2022/09/30 04:24:04;;;;;;;20.88;19.58;;;10.20;85.80;;;;;;4949130;28;20039;-77
2022/09/30 04:26:30;;;;;;;20.35;18.95;;;10.10;85.50;;;;;;4936453;29;20038;-78
2022/09/30 04:28:57;;;;;;;20.80;19.40;;;10.20;85.80;;;;;;4936608;29;20365;-78
2022/09/30 04:31:23;;;;;;;20.20;18.83;;;10.20;85.60;;;;;;4950653;28;20039;-78
2022/09/30 04:33:50;;;;;;;19.45;18.25;;;10.20;85.60;;;;;;4949633;28;20510;-77
2022/09/30 04:36:16;;;;;;;19.85;18.55;;;10.10;85.50;;;;;;4954699;28;20484;-77
2022/09/30 04:38:42;;;;;;;20.17;18.88;;;10.10;85.50;;;;;;4958163;28;20388;-77
2022/09/30 04:41:15;;;;;;;19.95;18.65;;;10.10;85.50;;;;;;4958385;28;20042;-77
2022/09/30 04:43:45;;;;;;;19.63;18.33;;;10.00;85.60;;;;;;4966094;28;20045;-77
2022/09/30 04:46:18;;;;;;;19.77;18.58;;;10.00;85.60;;;;;;4939565;28;20035;-77
2022/09/30 04:48:45;;;;;;;19.52;18.02;;;10.10;85.70;;;;;;4955140;28;20035;-78
2022/09/30 04:51:20;;;;;;;19.63;18.23;;;10.10;85.50;;;;;;4955527;28;20043;-77
2022/09/30 04:53:46;;;;;;;17.73;16.48;;;10.00;85.50;;;;;;4955298;28;20042;-77
2022/09/30 04:56:13;;;;;;;20.60;17.60;;;10.00;85.60;;;;;;4954626;29;20034;-78
2022/09/30 04:58:39;;;;;;;28.45;18.60;;;10.00;85.50;;;;;;4968896;28;20059;-78
2022/09/30 05:01:07;;;;;;;20.63;19.10;;;10.00;85.50;;;;;;4954844;28;20028;-78
2022/09/30 05:03:33;;;;;;;20.38;19.02;;;10.00;85.50;;;;;;4969152;28;20366;-77
2022/09/30 05:05:59;;;;;;;20.63;19.13;;;9.90;85.40;;;;;;4955115;29;20488;-78
2022/09/30 05:08:26;;;;;;;18.52;17.23;;;9.90;85.70;;;;;;4954259;29;20408;-78
2022/09/30 05:10:56;;;;;;;18.67;17.48;;;9.90;85.60;;;;;;4954396;29;20058;-77
2022/09/30 05:13:29;;;;;;;21.48;19.98;;;9.80;85.60;;;;;;4965433;28;20035;-77
2022/09/30 05:15:55;;;;;;;21.42;19.90;;;9.80;85.80;;;;;;4942175;28;20039;-78
2022/09/30 05:18:21;;;;;;;22.00;20.40;;;9.70;86.10;;;;;;4935428;29;20039;-78
2022/09/30 05:20:49;;;;;;;20.40;19.10;;;9.70;86.10;;;;;;4935848;29;20035;-77
2022/09/30 05:23:17;;;;;;;19.42;18.13;;;9.70;86.20;;;;;;4945653;28;20388;-77
2022/09/30 05:25:43;;;;;;;18.10;16.90;;;9.70;86.00;;;;;;4969695;28;20031;-78
2022/09/30 05:28:09;;;;;;;18.55;17.45;;;9.70;85.70;;;;;;4954889;28;20032;-77
2022/09/30 05:30:35;;;;;;;19.48;18.08;;;9.70;85.70;;;;;;4953847;28;20031;-77
2022/09/30 05:33:01;;;;;;;20.15;18.55;;;9.70;85.80;;;;;;4953191;28;20058;-77
2022/09/30 05:35:27;;;;;;;18.92;17.63;;;9.70;85.80;;;;;;4954582;29;20035;-77
2022/09/30 05:37:53;;;;;;;19.38;17.98;;;9.70;85.30;;;;;;4954812;29;20050;-77
2022/09/30 05:40:19;;;;;;;18.85;17.40;;;9.70;85.60;;;;;;4968448;28;20039;-77
2022/09/30 05:42:46;;;;;;;19.15;17.90;;;9.60;85.60;;;;;;4973874;28;20035;-77
2022/09/30 05:45:12;;;;;;;21.08;19.67;;;9.60;85.60;;;;;;4973137;28;20039;-78
2022/09/30 05:47:38;;;;;;;22.88;21.20;;;9.50;86.00;;;;;;4952944;28;20035;-77
2022/09/30 05:50:05;;;;;;;22.42;20.63;;;9.60;86.10;;;;;;4953658;28;20038;-77
2022/09/30 05:52:31;;;;;;;22.10;20.67;;;9.60;86.10;;;;;;4953437;28;20046;-76
2022/09/30 05:54:59;;;;;;;23.15;21.45;;;9.50;86.90;;;;;;4969420;28;20058;-76
2022/09/30 05:57:29;;;;;;;22.40;20.63;;;9.60;86.30;;;;;;4951730;28;20065;-75
2022/09/30 05:59:56;;;;;;;22.17;20.58;;;9.60;86.40;;;;;;4942774;29;20051;-75
2022/09/30 06:02:23;;;;;;;22.08;20.58;;;9.60;86.10;;;;;;4949816;28;20035;-74
2022/09/30 06:04:49;;;;;;;21.15;19.63;;;9.60;85.90;;;;;;4935280;29;20376;-74
2022/09/30 06:07:16;;;;;;;20.95;19.52;;;9.60;85.70;;;;;;4942671;28;20035;-74
2022/09/30 06:09:42;;;;;;;20.88;19.27;;;9.60;85.80;;;;;;4949734;29;20035;-74
2022/09/30 06:12:08;;;;;;;20.90;19.20;;;9.60;85.90;;;;;;4946438;28;20024;-74
2022/09/30 06:14:34;;;;;;;22.20;20.20;;;9.50;85.80;;;;;;4933743;29;20039;-75
2022/09/30 06:17:01;;;;;;;22.88;21.27;;;9.60;86.10;;;;;;4933426;28;20400;-74
2022/09/30 06:19:29;;;;;;;23.15;21.48;;;9.50;86.10;;;;;;4943712;28;20047;-74
2022/09/30 06:21:56;;;;;;;23.90;22.17;;;9.50;86.10;;;;;;4954216;29;20030;-74
2022/09/30 06:24:22;;;;;;;23.10;20.83;;;9.60;86.10;;;;;;4968964;28;20050;-76
2022/09/30 06:26:48;;;;;;;23.63;21.50;;;9.60;86.10;;;;;;4949942;29;20031;-77
2022/09/30 06:29:14;;;;;;;22.17;20.58;;;9.60;86.30;;;;;;4948763;28;20523;-75
2022/09/30 06:31:40;;;;;;;23.88;21.58;;;9.60;86.60;;;;;;4940824;28;20499;-79
2022/09/30 06:34:07;;;;;;;22.77;21.27;;;9.50;86.70;;;;;;4941953;29;20039;-77
2022/09/30 06:36:33;;;;;;;24.42;22.73;;;9.60;87.00;;;;;;4942497;29;20391;-75
2022/09/30 06:39:02;;;;;;;25.17;22.77;;;9.60;87.60;;;;;;4952840;28;20039;-76
2022/09/30 06:41:29;;;;;;;24.92;22.95;;;9.60;87.10;;;;;;4945051;28;20042;-75
2022/09/30 06:43:55;;;;;;;25.38;23.38;;;9.60;87.60;;;;;;4944447;28;20054;-75
2022/09/30 06:46:23;;;;;;;24.67;22.73;;;9.60;87.60;;;;;;4932543;28;20039;-75
2022/09/30 06:48:53;;;;;;;26.42;24.42;;;9.60;88.00;;;;;;4945036;28;20027;-75
2022/09/30 06:51:19;;;;;;;25.33;23.13;;;9.60;88.10;;;;;;4951235;28;20488;-75
2022/09/30 06:53:49;;;;;;;24.33;22.42;;;9.70;88.50;;;;;;4962934;28;20044;-77
2022/09/30 06:56:17;;;;;;;25.75;23.73;;;9.70;88.70;;;;;;4945557;28;20484;-75
2022/09/30 06:58:46;;;;;;;27.38;25.17;;;9.80;88.90;;;;;;4944619;28;20055;-75
2022/09/30 07:01:13;;;;;;;24.60;22.77;;;9.80;89.20;;;;;;4952016;28;20039;-76
2022/09/30 07:03:43;;;;;;;25.17;23.25;;;9.90;90.10;;;;;;4972231;28;20035;-75
2022/09/30 07:06:10;;;;;;;27.00;24.85;;;10.30;91.40;;;;;;4957452;29;20457;-74
2022/09/30 07:08:37;;;;;;;22.98;21.38;;;10.70;91.90;;;;;;4970275;28;20468;-76
2022/09/30 07:11:10;;;;;;;24.05;22.45;;;11.10;91.00;;;;;;4967954;28;20027;-75
2022/09/30 07:13:37;;;;;;;25.20;23.40;;;11.50;90.30;;;;;;4948988;29;20023;-76
2022/09/30 07:16:03;;;;;;;26.95;25.15;;;11.90;89.20;;;;;;4942051;28;20031;-76
2022/09/30 07:18:29;;;;;;;25.25;23.33;;;12.30;87.90;;;;;;4952571;28;20028;-75
2022/09/30 07:20:55;;;;;;;26.27;24.58;;;12.60;86.60;;;;;;4968351;28;20051;-76
2022/09/30 07:23:21;;;;;;;28.70;26.88;;;12.90;85.80;;;;;;4946272;29;20587;-77
2022/09/30 07:25:49;;;;;;;27.58;25.77;;;13.20;84.80;;;;;;4968842;28;20404;-76
2022/09/30 07:28:16;;;;;;;26.20;24.70;;;13.50;83.60;;;;;;4971392;28;20038;-76
2022/09/30 07:30:42;;;;;;;26.42;24.83;;;13.80;82.90;;;;;;4956580;28;20484;-80
2022/09/30 07:33:15;;;;;;;27.80;26.00;;;13.80;81.80;;;;;;4956099;28;20039;-79
2022/09/30 07:35:49;;;;;;;25.73;24.13;;;13.90;81.50;;;;;;4950771;29;20039;-79
2022/09/30 07:38:17;;;;;;;25.30;23.60;;;14.30;81.00;;;;;;4967276;28;20291;-78
2022/09/30 07:40:51;;;;;;;25.48;23.90;;;14.50;80.50;;;;;;4964242;28;20039;-79
2022/09/30 07:43:18;;;;;;;25.70;24.10;;;14.70;78.80;;;;;;4956186;29;20023;-79
2022/09/30 07:45:44;;;;;;;24.50;22.90;;;14.90;78.20;;;;;;4955965;28;20027;-79
2022/09/30 07:48:39;;;;;;;26.15;24.67;;;15.10;77.20;;;;;;4955546;28;20019;-79
2022/09/30 07:50:56;;;;;;;26.95;25.45;;;15.30;76.40;;;;;;4952792;28;20388;-78
2022/09/30 07:53:22;;;;;;;29.13;27.52;;;15.50;76.50;;;;;;4941001;29;20043;-79
2022/09/30 07:55:48;;;;;;;26.70;25.25;;;15.60;75.40;;;;;;4954121;29;20058;-78
2022/09/30 07:58:14;;;;;;;26.92;25.30;;;15.80;75.00;;;;;;4956067;28;20495;-78
2022/09/30 08:00:41;;;;;;;31.63;29.83;;;15.90;74.90;;;;;;4955233;28;20472;-79
2022/09/30 08:03:07;;;;;;;30.83;29.02;;;16.10;74.60;;;;;;4956076;28;20027;-79
2022/09/30 08:05:40;;;;;;;27.70;26.17;;;16.30;73.00;;;;;;4953878;28;20027;-79
2022/09/30 08:08:06;;;;;;;28.13;26.58;;;16.30;72.60;;;;;;4947834;28;20031;-79
2022/09/30 08:10:34;;;;;;;29.63;27.48;;;16.20;72.70;;;;;;4962045;28;20027;-79
2022/09/30 08:13:00;;;;;;;29.05;27.15;;;15.80;73.10;;;;;;4954956;28;20027;-79
2022/09/30 08:15:26;;;;;;;29.50;27.90;;;15.80;73.40;;;;;;4966531;28;20039;-78
2022/09/30 08:17:52;;;;;;;27.63;26.02;;;15.60;73.30;;;;;;4955596;29;20064;-78
2022/09/30 08:20:19;;;;;;;28.30;26.55;;;15.50;75.20;;;;;;4954541;29;20510;-78
2022/09/30 08:22:45;;;;;;;29.58;27.75;;;15.70;75.40;;;;;;4936535;29;20035;-79
2022/09/30 08:25:11;;;;;;;28.77;27.15;;;15.70;74.10;;;;;;4947575;29;20491;-78
2022/09/30 08:27:38;;;;;;;29.80;28.00;;;15.60;74.40;;;;;;4955774;29;20031;-79
2022/09/30 08:30:04;;;;;;;28.63;26.83;;;15.30;74.80;;;;;;4955545;28;20413;-80
2022/09/30 08:32:31;;;;;;;29.17;27.38;;;15.40;76.00;;;;;;4955798;28;20056;-79
2022/09/30 08:34:57;;;;;;;30.38;28.42;;;15.60;75.70;;;;;;4954459;29;20027;-79
2022/09/30 08:37:23;;;;;;;29.52;27.83;;;16.10;75.60;;;;;;4964969;28;20035;-80
2022/09/30 08:39:49;;;;;;;32.17;30.25;;;16.40;74.30;;;;;;4966078;28;20042;-80
2022/09/30 08:42:37;;;;;;;30.83;28.75;;;16.70;72.70;;;;;;4951008;28;20511;-79
2022/09/30 08:45:54;;;;;;;31.33;29.42;;;16.70;72.00;;;;;;4941592;28;20028;-76
2022/09/30 08:48:20;;;;;;;31.83;29.92;;;16.60;72.00;;;;;;4887970;29;20047;-75
2022/09/30 08:50:56;;;;;;;35.17;33.08;;;16.60;72.50;;;;;;4915167;29;20497;-75
2022/09/30 08:53:25;;;;;;;36.65;34.58;;;16.60;72.80;;;;;;4915279;29;20044;-76
2022/09/30 08:55:52;;;;;;;37.15;34.97;;;16.70;72.30;;;;;;4913541;29;20075;-74
2022/09/30 08:58:21;;;;;;;38.20;36.00;;;16.70;72.70;;;;;;4899100;29;20043;-75
2022/09/30 09:00:47;;;;;;;36.95;34.60;;;16.70;72.80;;;;;;4913606;29;20063;-75
2022/09/30 09:03:13;;;;;;;38.38;36.20;;;16.70;73.10;;;;;;4899165;29;20036;-75
2022/09/30 09:05:57;;;;;;;37.92;35.83;;;16.70;73.50;;;;;;4898807;29;20163;-75
2022/09/30 09:08:36;;;;;;;37.47;35.30;;;16.80;73.60;;;;;;4913710;29;20386;-75
2022/09/30 09:11:26;;;;;;;36.78;34.70;;;16.70;73.00;;;;;;4882826;29;20055;-75
2022/09/30 09:14:02;;;;;;;34.63;32.55;;;16.80;73.80;;;;;;4885169;29;20032;-75
2022/09/30 09:16:30;;;;;;;36.03;33.70;;;16.90;73.40;;;;;;4914068;29;20044;-75
2022/09/30 09:19:13;;;;;;;37.50;35.40;;;17.10;72.90;;;;;;4912745;29;20493;-76
2022/09/30 09:22:00;;;;;;;38.58;36.47;;;17.20;72.30;;;;;;4968802;28;20050;-74
2022/09/30 09:24:29;;;;;;;40.45;37.95;;;17.30;72.20;;;;;;4952915;28;20058;-75
2022/09/30 09:26:56;;;;;;;41.45;39.15;;;17.30;71.90;;;;;;4969812;28;20027;-75
2022/09/30 09:29:34;;;;;;;40.20;37.90;;;17.30;72.10;;;;;;4966463;28;20046;-75
2022/09/30 09:32:02;;;;;;;40.38;38.22;;;17.40;71.20;;;;;;4958986;28;20385;-76
2022/09/30 09:34:28;;;;;;;42.13;39.83;;;17.40;71.00;;;;;;4969196;28;20047;-77
2022/09/30 09:37:00;;;;;;;40.40;38.20;;;17.50;70.40;;;;;;4959276;28;20043;-76
2022/09/30 09:39:43;;;;;;;42.08;39.67;;;17.40;71.00;;;;;;4976036;28;20058;-80
2022/09/30 09:42:33;;;;;;;37.45;35.38;;;17.50;70.80;;;;;;4959453;28;20050;-79
2022/09/30 09:45:07;;;;;;;36.80;34.70;;;17.30;69.80;;;;;;4947528;28;20031;-78
2022/09/30 09:47:33;;;;;;;35.72;33.88;;;17.40;70.60;;;;;;4961928;28;20047;-79
2022/09/30 09:50:03;;;;;;;41.88;39.75;;;17.40;69.70;;;;;;4937250;29;20032;-79
2022/09/30 09:52:35;;;;;;;42.13;39.75;;;17.40;70.00;;;;;;4934879;29;20031;-79
2022/09/30 09:55:01;;;;;;;38.15;36.13;;;17.60;70.90;;;;;;4946742;29;20035;-80
2022/09/30 09:57:31;;;;;;;35.45;33.45;;;17.50;69.60;;;;;;4952400;28;20027;-81
2022/09/30 09:59:59;;;;;;;39.13;37.13;;;17.60;68.80;;;;;;4950147;29;20051;-83
2022/09/30 10:02:30;;;;;;;38.03;36.03;;;17.70;66.10;;;;;;4952767;28;20038;-83
2022/09/30 10:05:02;;;;;;;33.95;32.05;;;17.60;68.40;;;;;;4951947;29;20372;-87
2022/09/30 10:07:32;;;;;;;35.83;33.83;;;17.60;67.90;;;;;;4967280;28;20027;-85
2022/09/30 10:10:29;;;;;;;37.78;35.65;;;17.60;68.70;;;;;;4951745;28;20047;-83
2022/09/30 10:12:55;;;;;;;35.30;33.17;;;17.70;68.60;;;;;;4948936;28;20035;-83
2022/09/30 10:15:22;;;;;;;34.50;32.67;;;17.70;67.70;;;;;;4952656;28;20424;-82
2022/09/30 10:17:55;;;;;;;34.70;32.80;;;17.80;68.30;;;;;;4936315;29;20042;-84
2022/09/30 10:20:35;;;;;;;38.42;36.33;;;17.80;68.50;;;;;;4932915;29;20058;-84
2022/09/30 10:23:09;;;;;;;35.50;33.63;;;17.90;67.90;;;;;;4934384;29;20031;-84
2022/09/30 10:25:35;;;;;;;38.90;36.83;;;18.00;68.10;;;;;;4937758;29;20034;-83
2022/09/30 10:28:14;;;;;;;35.80;33.75;;;18.00;68.70;;;;;;4944087;28;20384;-85
2022/09/30 10:31:00;;;;;;;35.70;33.70;;;17.80;67.30;;;;;;4942654;28;20503;-80
2022/09/30 10:33:30;;;;;;;40.10;37.90;;;17.90;68.70;;;;;;4963973;28;20043;-79
2022/09/30 10:36:08;;;;;;;40.92;38.72;;;17.90;68.20;;;;;;4949905;28;20032;-80
2022/09/30 10:38:35;;;;;;;41.78;39.28;;;17.90;67.50;;;;;;4942727;28;20476;-80
2022/09/30 10:41:02;;;;;;;44.42;42.13;;;17.80;67.10;;;;;;4975693;28;20042;-80
2022/09/30 10:43:36;;;;;;;37.80;35.70;;;17.80;67.90;;;;;;4968809;28;20046;-79
2022/09/30 10:46:03;;;;;;;36.08;33.88;;;17.80;67.60;;;;;;4954247;28;20411;-79
2022/09/30 10:48:32;;;;;;;40.30;38.08;;;17.80;67.90;;;;;;4942332;28;20074;-80
2022/09/30 10:50:58;;;;;;;48.88;46.28;;;17.80;67.90;;;;;;4951904;28;20480;-78
2022/09/30 10:53:30;;;;;;;40.13;37.92;;;17.80;67.60;;;;;;4938140;29;20384;-78
2022/09/30 10:55:57;;;;;;;51.40;48.60;;;17.80;67.60;;;;;;4936268;29;20035;-79
2022/09/30 10:58:41;;;;;;;47.92;45.25;;;17.90;67.50;;;;;;4947745;28;20047;-78
2022/09/30 11:01:26;;;;;;;50.55;47.95;;;17.90;67.10;;;;;;4951519;28;20043;-80
2022/09/30 11:03:55;;;;;;;50.90;48.20;;;17.90;66.70;;;;;;4954779;29;20038;-78
2022/09/30 11:06:23;;;;;;;51.70;49.00;;;17.90;67.00;;;;;;4950458;29;20046;-78
2022/09/30 11:09:17;;;;;;;57.47;54.45;;;18.00;66.60;;;;;;4936153;29;20038;-81
2022/09/30 11:11:50;;;;;;;49.47;46.83;;;18.00;65.80;;;;;;4945967;28;20043;-81
2022/09/30 11:14:43;;;;;;;57.42;54.45;;;17.90;64.60;;;;;;4952412;28;20046;-81
2022/09/30 11:17:09;;;;;;;45.92;43.15;;;17.80;66.80;;;;;;4949296;28;20050;-81
2022/09/30 11:20:09;;;;;;;51.10;48.50;;;17.90;66.30;;;;;;4955922;28;20027;-81
2022/09/30 11:22:54;;;;;;;32.92;31.23;;;18.10;63.70;;;;;;4948907;28;20074;-82
2022/09/30 11:25:45;;;;;;;32.45;30.75;;;18.10;59.70;;;;;;4945587;29;20047;-81
2022/09/30 11:28:30;;;;;;;35.85;33.88;;;18.10;60.00;;;;;;4947418;28;20051;-81
2022/09/30 11:31:19;;;;;;;28.40;26.90;;;18.20;60.50;;;;;;4945229;28;20420;-82
2022/09/30 11:34:17;;;;;;;31.33;29.50;;;18.20;60.60;;;;;;4959087;28;20062;-81
2022/09/30 11:36:49;;;;;;;31.77;30.08;;;18.30;61.30;;;;;;4956933;28;20484;-81
2022/09/30 11:39:42;;;;;;;25.73;24.40;;;18.30;60.70;;;;;;4954333;28;20031;-80
2022/09/30 11:42:11;;;;;;;26.20;24.80;;;18.40;59.20;;;;;;4932877;29;20035;-81
2022/09/30 11:44:40;;;;;;;24.60;23.30;;;18.40;59.00;;;;;;4952995;28;20472;-81
2022/09/30 11:47:26;;;;;;;24.67;23.20;;;18.50;58.60;;;;;;4937100;28;20055;-81
2022/09/30 11:50:25;;;;;;;26.27;24.83;;;18.50;58.10;;;;;;4936038;29;20040;-82
2022/09/30 11:53:04;;;;;;;26.50;25.02;;;18.60;58.60;;;;;;4937034;29;20031;-81
2022/09/30 11:56:07;;;;;;;29.98;28.48;;;18.70;58.50;;;;;;4935454;29;20035;-81
2022/09/30 11:58:38;;;;;;;34.08;32.33;;;18.80;57.70;;;;;;4950018;28;20031;-80
2022/09/30 12:01:20;;;;;;;31.90;30.30;;;18.90;59.00;;;;;;4963015;28;20507;-81
2022/09/30 12:04:07;;;;;;;34.47;32.78;;;18.90;58.80;;;;;;4954630;28;20476;-82
2022/09/30 12:07:15;;;;;;;32.08;30.38;;;18.90;58.70;;;;;;4953871;29;20027;-80
2022/09/30 12:09:49;;;;;;;36.03;34.08;;;18.90;59.00;;;;;;4952522;28;20054;-80
2022/09/30 12:12:18;;;;;;;35.00;33.30;;;18.90;58.90;;;;;;4954555;28;20584;-86
2022/09/30 12:14:44;;;;;;;34.35;32.65;;;18.80;58.80;;;;;;4930992;28;20047;-81
2022/09/30 12:17:19;;;;;;;34.65;32.85;;;18.80;57.90;;;;;;4944394;28;20375;-81
2022/09/30 12:19:50;;;;;;;33.65;31.92;;;18.70;58.10;;;;;;4954215;28;20043;-82
2022/09/30 12:22:57;;;;;;;37.45;35.65;;;18.70;58.20;;;;;;4938333;29;20038;-81
2022/09/30 12:25:32;;;;;;;40.05;38.05;;;18.70;58.30;;;;;;4934080;29;20050;-81
2022/09/30 12:31:27;;;;;;;37.95;36.00;;;18.70;59.30;;;;;;4923823;29;20159;-81
2022/09/30 12:34:06;;;;;;;36.88;35.05;;;18.70;58.80;;;;;;4908162;29;20048;-81
2022/09/30 12:36:44;;;;;;;35.65;33.75;;;18.70;58.10;;;;;;4899115;29;20040;-81
2022/09/30 12:39:24;;;;;;;32.55;30.95;;;18.70;58.00;;;;;;4905577;29;20106;-81
2022/09/30 12:42:02;;;;;;;32.95;31.35;;;18.70;57.00;;;;;;4916852;29;20031;-80
2022/09/30 12:44:51;;;;;;;31.67;30.00;;;18.70;57.20;;;;;;4933839;29;20043;-81
2022/09/30 12:47:33;;;;;;;29.67;28.17;;;18.70;57.10;;;;;;4901406;29;20047;-81
2022/09/30 12:49:59;;;;;;;31.10;29.45;;;18.70;57.30;;;;;;4897986;29;20032;-81
2022/09/30 12:52:26;;;;;;;31.20;29.70;;;18.80;57.20;;;;;;4898266;29;20055;-81
2022/09/30 12:54:56;;;;;;;30.10;28.50;;;19.00;57.40;;;;;;4898910;29;20550;-81
2022/09/30 12:57:28;;;;;;;30.38;28.58;;;19.10;55.70;;;;;;4899106;29;20043;-81
2022/09/30 12:59:56;;;;;;;35.15;33.38;;;19.10;56.20;;;;;;4884045;29;20071;-82